Time;durP1;ratioP1;P1;durP2;ratioP2;P2;SDS_P1;SDS_P2;PMS_P1;PMS_P2;Temp;Humidity;BMP_temperature;BMP_pressure;BME280_temperature;BME280_humidity;BME280_pressure;Samples;Min_cycle;Max_cycle;Signal;HPM_P1;HPM_P2
2023/07/04 00:00:13;;;;;;;7.13;3.45;;;13.80;99.90;;;;;;5019920;27;89417;-37
2023/07/04 00:02:39;;;;;;;4.00;3.40;;;13.80;99.90;;;;;;5033273;27;89050;-34
2023/07/04 00:05:06;;;;;;;9.40;3.75;;;13.80;99.90;;;;;;5020435;27;89702;-33
2023/07/04 00:07:31;;;;;;;12.02;4.53;;;13.80;99.90;;;;;;5018964;27;89184;-34
2023/07/04 00:10:02;;;;;;;11.52;4.22;;;13.80;99.90;;;;;;5020081;27;90025;-35
2023/07/04 00:12:30;;;;;;;14.55;4.68;;;13.80;99.90;;;;;;5016579;27;89875;-35
2023/07/04 00:14:56;;;;;;;;;;;13.80;99.90;;;;;;5032549;27;89757;-36
2023/07/04 00:17:21;;;;;;;12.23;5.00;;;13.80;99.90;;;;;;5020359;27;90357;-33
2023/07/04 00:19:48;;;;;;;10.00;3.92;;;13.80;99.90;;;;;;5019405;27;89736;-35
2023/07/04 00:22:13;;;;;;;6.63;3.78;;;13.80;99.90;;;;;;5019441;27;88211;-32
2023/07/04 00:24:40;;;;;;;10.68;4.60;;;13.80;99.90;;;;;;5020437;27;89853;-33
2023/07/04 00:27:06;;;;;;;10.88;4.40;;;13.80;99.90;;;;;;5019525;27;91139;-37
2023/07/04 00:29:32;;;;;;;9.40;4.38;;;13.80;99.90;;;;;;5018915;27;88961;-39
2023/07/04 00:31:58;;;;;;;7.93;3.88;;;13.80;99.90;;;;;;5018754;27;89360;-36
2023/07/04 00:34:24;;;;;;;9.43;4.47;;;13.80;99.90;;;;;;5019447;27;89285;-33
2023/07/04 00:36:50;;;;;;;15.45;4.68;;;13.80;99.90;;;;;;5020365;27;90040;-34
2023/07/04 00:39:16;;;;;;;8.23;5.18;;;13.80;99.90;;;;;;5022971;27;89875;-34
2023/07/04 00:41:42;;;;;;;12.13;4.72;;;13.70;99.90;;;;;;5023464;27;89011;-33
2023/07/04 00:44:22;;;;;;;9.57;4.47;;;13.80;99.90;;;;;;5023066;27;90474;-36
2023/07/04 00:47:10;;;;;;;11.95;5.55;;;13.80;99.90;;;;;;5022611;27;90255;-38
2023/07/04 00:49:43;;;;;;;9.85;4.60;;;13.70;99.90;;;;;;5022497;27;89350;-36
2023/07/04 00:52:12;;;;;;;12.32;5.28;;;13.70;99.90;;;;;;5021626;27;88700;-33
2023/07/04 00:54:52;;;;;;;10.82;5.57;;;13.70;99.90;;;;;;5032791;27;87860;-33
2023/07/04 00:57:22;;;;;;;10.52;5.00;;;13.70;99.90;;;;;;5022202;27;89860;-34
2023/07/04 00:59:52;;;;;;;10.13;4.68;;;13.70;99.90;;;;;;5009580;27;89803;-35
2023/07/04 01:02:22;;;;;;;9.52;5.28;;;13.70;99.90;;;;;;5022541;27;88760;-33
2023/07/04 01:04:50;;;;;;;16.00;5.25;;;13.70;99.90;;;;;;5031152;27;90149;-33
2023/07/04 01:07:19;;;;;;;8.77;5.00;;;13.70;99.90;;;;;;5026077;27;91237;-34
2023/07/04 01:09:52;;;;;;;9.57;4.85;;;13.70;99.90;;;;;;5021088;27;89490;-33
2023/07/04 01:12:18;;;;;;;12.35;4.90;;;13.70;99.90;;;;;;5021202;27;88545;-34
2023/07/04 01:14:44;;;;;;;13.93;5.25;;;13.60;99.90;;;;;;5021630;27;89418;-34
2023/07/04 01:17:10;;;;;;;13.40;6.07;;;13.60;99.90;;;;;;5020813;27;89273;-35
2023/07/04 01:19:38;;;;;;;9.35;5.30;;;13.60;99.90;;;;;;5020729;27;91511;-33
2023/07/04 01:22:33;;;;;;;12.02;6.25;;;13.60;99.90;;;;;;5020209;27;90077;-35
2023/07/04 01:25:10;;;;;;;11.38;5.93;;;13.60;99.90;;;;;;5001989;27;88414;-33
2023/07/04 01:27:39;;;;;;;9.33;6.13;;;13.50;99.90;;;;;;5020834;27;90154;-34
2023/07/04 01:30:05;;;;;;;;;;;13.50;99.90;;;;;;5022183;27;89488;-36
2023/07/04 01:32:34;;;;;;;9.85;5.53;;;13.50;99.90;;;;;;5022620;27;90100;-33
2023/07/04 01:35:00;;;;;;;;;;;13.50;99.90;;;;;;5020948;27;88839;-36
2023/07/04 01:37:30;;;;;;;7.60;4.63;;;13.50;99.90;;;;;;5021930;27;89889;-38
2023/07/04 01:39:57;;;;;;;5.38;4.47;;;13.50;99.90;;;;;;5019978;27;90186;-33
2023/07/04 01:42:23;;;;;;;8.45;5.30;;;13.50;99.90;;;;;;5020810;27;89846;-33
2023/07/04 01:44:49;;;;;;;7.22;4.20;;;13.50;99.90;;;;;;5019537;27;89342;-34
2023/07/04 01:47:14;;;;;;;10.35;4.82;;;13.50;99.90;;;;;;5020196;27;91035;-31
2023/07/04 01:49:40;;;;;;;9.18;5.38;;;13.40;99.90;;;;;;5020457;27;90281;-34
2023/07/04 01:52:06;;;;;;;8.00;5.75;;;13.40;99.90;;;;;;5002165;28;91425;-37
2023/07/04 01:54:32;;;;;;;10.10;5.22;;;13.40;99.90;;;;;;5034068;27;89245;-38
2023/07/04 01:56:58;;;;;;;9.82;6.00;;;13.40;99.90;;;;;;5006654;27;90747;-33
2023/07/04 01:59:23;;;;;;;7.95;4.93;;;13.40;99.90;;;;;;5020035;27;89189;-37
2023/07/04 02:01:50;;;;;;;12.88;5.30;;;13.40;99.90;;;;;;5018264;27;89985;-33
2023/07/04 02:04:15;;;;;;;8.68;5.38;;;13.40;99.90;;;;;;5031629;27;89865;-33
2023/07/04 02:06:42;;;;;;;8.05;4.88;;;13.40;99.90;;;;;;5022516;27;89985;-33
2023/07/04 02:09:08;;;;;;;11.25;4.95;;;13.40;99.90;;;;;;5019349;27;90244;-36
2023/07/04 02:11:33;;;;;;;8.98;5.80;;;13.40;99.90;;;;;;5020285;27;89893;-35
2023/07/04 02:14:00;;;;;;;11.93;4.78;;;13.40;99.90;;;;;;5023313;27;90070;-31
2023/07/04 02:16:26;;;;;;;15.05;5.43;;;13.40;99.90;;;;;;5022173;27;90616;-34
2023/07/04 02:18:52;;;;;;;13.98;6.18;;;13.40;99.90;;;;;;5023227;27;90206;-39
2023/07/04 02:21:18;;;;;;;9.05;4.47;;;13.40;99.90;;;;;;5023588;27;90081;-34
2023/07/04 02:23:44;;;;;;;11.00;5.35;;;13.40;99.90;;;;;;5021599;27;88208;-35
2023/07/04 02:26:12;;;;;;;11.98;4.90;;;13.40;99.90;;;;;;5024180;27;90329;-34
2023/07/04 02:28:39;;;;;;;8.32;5.55;;;13.40;99.90;;;;;;5023734;27;88744;-32
2023/07/04 02:31:05;;;;;;;10.83;5.03;;;13.30;99.90;;;;;;5024316;27;89829;-32
2023/07/04 02:33:31;;;;;;;9.73;5.55;;;13.30;99.90;;;;;;5022505;27;89343;-34
2023/07/04 02:35:57;;;;;;;6.38;4.55;;;13.30;99.90;;;;;;5024023;27;90778;-33
2023/07/04 02:38:22;;;;;;;8.90;5.43;;;13.30;99.90;;;;;;5022587;27;90042;-34
2023/07/04 02:40:51;;;;;;;7.57;5.38;;;13.30;99.90;;;;;;5023906;27;89833;-37
2023/07/04 02:43:17;;;;;;;10.40;6.22;;;13.30;99.90;;;;;;5023848;27;88231;-32
2023/07/04 02:45:43;;;;;;;7.32;5.38;;;13.30;99.90;;;;;;5023731;27;90716;-33
2023/07/04 02:48:09;;;;;;;12.40;5.05;;;13.20;99.90;;;;;;5021096;27;89130;-33
2023/07/04 02:50:35;;;;;;;8.48;5.25;;;13.20;99.90;;;;;;5023681;27;89299;-33
2023/07/04 02:53:01;;;;;;;8.45;5.03;;;13.20;99.90;;;;;;5022331;27;89550;-37
2023/07/04 02:55:27;;;;;;;8.95;5.43;;;13.20;99.90;;;;;;5039070;27;90613;-34
2023/07/04 02:57:53;;;;;;;8.07;5.07;;;13.10;99.90;;;;;;5036773;27;91105;-34
2023/07/04 03:00:19;;;;;;;15.43;5.78;;;13.10;99.90;;;;;;5031119;27;89563;-33
2023/07/04 03:02:44;;;;;;;9.32;4.82;;;13.10;99.90;;;;;;5019688;27;89951;-33
2023/07/04 03:05:10;;;;;;;10.73;5.80;;;13.10;99.90;;;;;;5019613;27;90083;-37
2023/07/04 03:07:36;;;;;;;8.77;5.25;;;13.10;99.90;;;;;;5019239;27;90250;-34
2023/07/04 03:10:02;;;;;;;12.98;5.53;;;13.10;99.90;;;;;;5019271;27;89405;-33
2023/07/04 03:12:27;;;;;;;12.30;5.03;;;13.10;99.90;;;;;;5032231;27;88660;-36
2023/07/04 03:14:53;;;;;;;10.05;6.05;;;13.00;99.90;;;;;;5019334;27;89242;-35
2023/07/04 03:17:19;;;;;;;11.50;6.18;;;13.00;99.90;;;;;;5018877;27;90758;-33
2023/07/04 03:19:45;;;;;;;10.18;5.22;;;13.00;99.90;;;;;;5019812;27;90111;-33
2023/07/04 03:22:10;;;;;;;7.35;5.15;;;12.90;99.90;;;;;;5019359;27;89285;-31
2023/07/04 03:24:36;;;;;;;6.43;4.70;;;13.00;99.90;;;;;;5020550;27;90285;-33
2023/07/04 03:27:02;;;;;;;7.47;4.82;;;13.00;99.90;;;;;;5024015;27;89296;-32
2023/07/04 03:29:28;;;;;;;8.15;5.50;;;13.10;99.90;;;;;;5030884;27;89940;-36
2023/07/04 03:31:53;;;;;;;11.23;5.45;;;13.00;99.90;;;;;;5019355;27;89489;-35
2023/07/04 03:34:19;;;;;;;11.02;5.40;;;13.00;99.90;;;;;;5018140;27;89399;-35
2023/07/04 03:36:45;;;;;;;14.18;5.65;;;13.00;99.90;;;;;;5019273;27;90317;-32
2023/07/04 03:39:11;;;;;;;16.42;5.50;;;13.00;99.90;;;;;;5027288;27;89567;-33
2023/07/04 03:41:36;;;;;;;10.32;4.78;;;13.00;99.90;;;;;;5025580;27;89343;-32
2023/07/04 03:44:02;;;;;;;11.13;6.60;;;13.00;99.90;;;;;;5030160;27;90213;-34
2023/07/04 03:46:28;;;;;;;7.70;5.35;;;13.00;99.90;;;;;;5017132;27;90700;-38
2023/07/04 03:48:53;;;;;;;7.90;6.03;;;13.00;99.90;;;;;;5019468;27;89312;-31
2023/07/04 03:51:19;;;;;;;10.38;5.82;;;13.00;99.90;;;;;;5018319;27;89754;-34
2023/07/04 03:53:45;;;;;;;14.25;6.85;;;13.10;99.90;;;;;;5025941;27;90098;-32
2023/07/04 03:56:11;;;;;;;11.60;5.78;;;13.00;99.90;;;;;;5023653;27;89751;-35
2023/07/04 03:58:37;;;;;;;9.65;5.80;;;13.00;99.90;;;;;;5018791;27;89938;-34
2023/07/04 04:01:06;;;;;;;12.13;6.28;;;13.00;99.90;;;;;;5018613;27;88861;-35
2023/07/04 04:03:37;;;;;;;13.18;6.13;;;13.00;99.90;;;;;;4985729;28;90196;-36
2023/07/04 04:06:07;;;;;;;8.95;6.15;;;13.10;99.90;;;;;;5013768;27;89484;-36
2023/07/04 04:08:33;;;;;;;17.17;6.05;;;13.10;99.90;;;;;;5019209;27;89413;-32
2023/07/04 04:11:18;;;;;;;12.48;6.05;;;13.10;99.90;;;;;;5030747;27;88907;-36
2023/07/04 04:14:02;;;;;;;11.35;5.95;;;13.10;99.90;;;;;;5017833;27;87940;-35
2023/07/04 04:16:28;;;;;;;9.38;6.10;;;13.20;99.90;;;;;;5018586;27;90158;-37
2023/07/04 04:18:53;;;;;;;11.48;6.32;;;13.20;99.90;;;;;;5018030;27;89394;-35
2023/07/04 04:21:19;;;;;;;11.35;5.88;;;13.20;99.90;;;;;;5000091;28;89014;-30
2023/07/04 04:23:45;;;;;;;15.80;6.30;;;13.20;99.90;;;;;;5017165;27;90653;-33
2023/07/04 04:26:14;;;;;;;12.32;6.25;;;13.20;99.90;;;;;;5018500;27;89710;-34
2023/07/04 04:28:40;;;;;;;11.32;6.82;;;13.20;99.90;;;;;;5018356;27;89244;-35
2023/07/04 04:31:06;;;;;;;10.98;5.68;;;13.20;99.90;;;;;;5019040;27;87667;-34
2023/07/04 04:33:32;;;;;;;10.30;6.10;;;13.20;99.90;;;;;;5019752;27;90194;-35
2023/07/04 04:35:58;;;;;;;14.80;6.82;;;13.30;99.90;;;;;;5029020;27;90678;-31
2023/07/04 04:38:23;;;;;;;10.70;5.43;;;13.30;99.90;;;;;;5016722;27;91217;-35
2023/07/04 04:40:50;;;;;;;8.60;6.00;;;13.30;99.90;;;;;;5040120;22;88125;-36
2023/07/04 04:43:16;;;;;;;14.48;6.75;;;13.30;99.90;;;;;;4998340;28;89030;-37
2023/07/04 04:45:41;;;;;;;10.00;6.20;;;13.30;99.90;;;;;;4997771;28;89781;-35
2023/07/04 04:48:07;;;;;;;12.20;5.32;;;13.40;99.90;;;;;;4997809;28;89868;-35
2023/07/04 04:50:33;;;;;;;12.35;6.53;;;13.40;99.90;;;;;;4998268;28;89192;-33
2023/07/04 04:52:59;;;;;;;11.93;6.05;;;13.40;99.90;;;;;;4997782;28;90580;-36
2023/07/04 04:55:25;;;;;;;10.43;5.97;;;13.50;99.90;;;;;;4998134;28;89512;-33
2023/07/04 04:57:52;;;;;;;12.18;5.90;;;13.50;99.90;;;;;;4999917;28;89115;-33
2023/07/04 05:00:18;;;;;;;9.40;5.45;;;13.50;99.90;;;;;;4997697;28;90578;-37
2023/07/04 05:02:47;;;;;;;10.40;5.95;;;13.50;99.90;;;;;;5000590;28;89844;-34
2023/07/04 05:05:13;;;;;;;12.93;6.03;;;13.50;99.90;;;;;;4997027;28;89226;-33
2023/07/04 05:07:39;;;;;;;9.50;5.60;;;13.50;99.90;;;;;;4997888;28;89365;-36
2023/07/04 05:10:05;;;;;;;10.05;5.07;;;13.60;99.90;;;;;;4997919;28;89417;-33
2023/07/04 05:12:32;;;;;;;10.90;4.93;;;13.60;99.90;;;;;;5002117;28;90949;-34
2023/07/04 05:14:58;;;;;;;11.95;5.68;;;13.70;99.90;;;;;;4998161;27;90138;-39
2023/07/04 05:17:24;;;;;;;7.13;4.82;;;13.70;99.90;;;;;;4991603;28;89461;-37
2023/07/04 05:19:50;;;;;;;6.18;4.68;;;13.70;99.90;;;;;;4997986;28;88616;-33
2023/07/04 05:22:18;;;;;;;11.55;5.68;;;13.70;99.90;;;;;;4997509;28;89903;-35
2023/07/04 05:24:43;;;;;;;8.88;5.60;;;13.70;99.90;;;;;;4991149;28;90155;-33
2023/07/04 05:27:09;;;;;;;9.65;4.82;;;13.70;99.90;;;;;;5000140;28;90545;-33
2023/07/04 05:29:35;;;;;;;11.40;5.05;;;13.70;99.90;;;;;;5001687;28;88498;-36
2023/07/04 05:32:00;;;;;;;9.07;4.78;;;13.70;99.90;;;;;;5000674;28;90988;-37
2023/07/04 05:34:26;;;;;;;7.93;4.50;;;13.80;99.90;;;;;;5000912;28;90515;-36
2023/07/04 05:36:52;;;;;;;8.00;4.22;;;13.80;99.90;;;;;;5000708;28;89941;-34
2023/07/04 05:39:18;;;;;;;9.05;3.65;;;13.80;99.90;;;;;;5000148;28;90085;-36
2023/07/04 05:41:43;;;;;;;10.27;3.83;;;13.80;99.90;;;;;;5001002;27;90463;-32
2023/07/04 05:44:10;;;;;;;5.95;3.47;;;13.90;99.90;;;;;;5000390;28;90133;-34
2023/07/04 05:46:36;;;;;;;9.13;4.25;;;13.90;99.90;;;;;;5001107;28;89352;-35
2023/07/04 05:49:04;;;;;;;7.40;3.45;;;13.90;99.90;;;;;;5000378;28;90547;-36
2023/07/04 05:51:30;;;;;;;6.65;3.17;;;13.90;99.90;;;;;;4997575;28;89824;-33
2023/07/04 05:53:55;;;;;;;6.38;3.28;;;14.00;99.90;;;;;;5007584;28;89094;-37
2023/07/04 05:56:30;;;;;;;6.50;3.17;;;14.00;99.90;;;;;;5003482;27;89889;-34
2023/07/04 05:58:59;;;;;;;8.40;3.40;;;14.00;99.90;;;;;;4998610;28;88915;-35
2023/07/04 06:01:39;;;;;;;6.57;2.88;;;14.10;99.90;;;;;;4994404;28;93108;-39
2023/07/04 06:04:07;;;;;;;8.40;3.30;;;14.20;99.90;;;;;;4988472;28;89988;-38
2023/07/04 06:06:44;;;;;;;9.07;3.22;;;14.20;99.90;;;;;;5000523;28;89736;-38
2023/07/04 06:09:14;;;;;;;8.40;3.67;;;14.30;99.90;;;;;;5014979;28;88584;-36
2023/07/04 06:11:45;;;;;;;6.65;3.10;;;14.30;99.90;;;;;;5017645;27;90279;-34
2023/07/04 06:14:27;;;;;;;11.68;3.58;;;14.40;99.90;;;;;;5007585;28;90376;-33
2023/07/04 06:16:55;;;;;;;7.38;3.25;;;14.40;99.90;;;;;;4998762;28;90182;-36
2023/07/04 06:19:21;;;;;;;5.47;2.95;;;14.50;99.90;;;;;;5016309;27;90582;-39
2023/07/04 06:21:46;;;;;;;3.92;2.60;;;14.60;99.90;;;;;;5018514;28;90010;-33
2023/07/04 06:24:15;;;;;;;5.68;3.25;;;14.60;99.90;;;;;;5005629;27;89507;-34
2023/07/04 06:26:40;;;;;;;4.85;2.92;;;14.70;99.90;;;;;;5017166;27;89747;-35
2023/07/04 06:29:06;;;;;;;4.85;3.40;;;14.80;99.90;;;;;;5015516;28;89449;-37
2023/07/04 06:31:32;;;;;;;7.03;3.88;;;14.90;99.90;;;;;;5001097;28;90241;-36
2023/07/04 06:33:58;;;;;;;6.20;3.22;;;15.00;99.90;;;;;;5004132;28;89386;-34
2023/07/04 06:36:24;;;;;;;9.30;3.00;;;15.20;99.90;;;;;;5000044;28;90106;-34
2023/07/04 06:38:50;;;;;;;6.80;2.95;;;15.30;99.90;;;;;;5003888;28;89546;-36
2023/07/04 06:41:16;;;;;;;7.05;2.53;;;15.40;99.90;;;;;;5016864;28;90243;-37
2023/07/04 06:43:44;;;;;;;4.32;2.65;;;15.50;99.90;;;;;;5015702;27;89858;-34
2023/07/04 06:46:11;;;;;;;5.78;2.58;;;16.00;99.90;;;;;;5000879;28;89444;-37
2023/07/04 06:48:36;;;;;;;5.70;3.15;;;16.20;99.90;;;;;;5004392;28;89440;-36
2023/07/04 06:51:07;;;;;;;6.13;2.92;;;16.30;99.90;;;;;;5000629;28;90328;-35
2023/07/04 06:53:34;;;;;;;5.45;2.53;;;16.20;99.90;;;;;;5006724;28;91083;-33
2023/07/04 06:56:22;;;;;;;3.60;2.67;;;16.20;99.90;;;;;;5005341;28;89778;-35
2023/07/04 06:58:50;;;;;;;7.03;2.67;;;16.20;99.90;;;;;;4986217;28;89202;-33
2023/07/04 07:01:17;;;;;;;3.35;2.58;;;16.10;99.90;;;;;;4996933;28;90490;-36
2023/07/04 07:03:43;;;;;;;3.90;2.25;;;16.10;99.90;;;;;;4996187;28;91215;-35
2023/07/04 07:06:10;;;;;;;5.22;2.47;;;16.20;99.90;;;;;;4996175;28;91149;-33
2023/07/04 07:08:36;;;;;;;3.63;2.20;;;16.10;99.90;;;;;;4997965;28;89355;-38
2023/07/04 07:11:09;;;;;;;4.10;2.35;;;16.10;99.90;;;;;;5010110;28;90525;-33
2023/07/04 07:13:35;;;;;;;5.68;2.70;;;16.00;99.90;;;;;;4997312;28;89712;-34
2023/07/04 07:16:20;;;;;;;1.98;1.77;;;16.10;99.90;;;;;;4998082;28;90354;-32
2023/07/04 07:18:47;;;;;;;5.22;2.92;;;16.00;99.90;;;;;;4997509;28;89729;-33
2023/07/04 07:21:18;;;;;;;4.68;2.40;;;16.10;99.90;;;;;;4984857;28;90184;-34
2023/07/04 07:23:44;;;;;;;3.38;2.05;;;16.10;99.90;;;;;;4996383;28;90556;-38
2023/07/04 07:26:11;;;;;;;5.68;2.65;;;16.00;99.90;;;;;;4996635;28;90072;-32
2023/07/04 07:28:39;;;;;;;4.30;2.57;;;16.00;99.90;;;;;;4996280;28;89446;-35
2023/07/04 07:31:10;;;;;;;;;;;16.20;99.90;;;;;;4997712;28;89859;-37
2023/07/04 07:33:37;;;;;;;5.40;2.15;;;16.50;99.90;;;;;;4998071;28;89710;-36
2023/07/04 07:36:32;;;;;;;7.60;2.42;;;16.70;99.90;;;;;;4997290;28;89321;-38
2023/07/04 07:38:59;;;;;;;5.40;2.53;;;16.50;99.90;;;;;;4997237;28;89613;-35
2023/07/04 07:41:29;;;;;;;6.53;2.50;;;16.70;99.90;;;;;;4995966;28;89921;-37
2023/07/04 07:43:56;;;;;;;5.35;2.85;;;16.80;99.90;;;;;;4983604;28;88773;-33
2023/07/04 07:46:21;;;;;;;5.18;2.50;;;16.80;99.90;;;;;;4995832;28;89474;-36
2023/07/04 07:48:49;;;;;;;4.22;1.90;;;17.00;99.90;;;;;;4996781;28;88963;-34
2023/07/04 07:51:15;;;;;;;6.65;2.55;;;17.00;99.90;;;;;;4996581;28;90079;-35
2023/07/04 07:53:43;;;;;;;11.55;2.58;;;17.20;99.90;;;;;;5002017;28;91953;-37
2023/07/04 07:56:10;;;;;;;4.07;2.13;;;17.30;99.90;;;;;;5003119;28;91541;-34
2023/07/04 07:58:36;;;;;;;6.68;2.00;;;17.50;99.90;;;;;;4991158;28;88153;-36
2023/07/04 08:01:15;;;;;;;5.80;2.20;;;17.50;99.90;;;;;;5003314;27;91305;-33
2023/07/04 08:03:42;;;;;;;5.50;2.38;;;17.70;99.90;;;;;;5008037;28;91770;-32
2023/07/04 08:06:39;;;;;;;5.15;2.20;;;17.50;99.90;;;;;;4996427;28;88719;-33
2023/07/04 08:09:07;;;;;;;10.57;2.03;;;17.40;99.90;;;;;;4996366;28;90478;-34
2023/07/04 08:11:33;;;;;;;5.18;1.92;;;17.20;99.90;;;;;;4983949;28;89988;-33
2023/07/04 08:13:59;;;;;;;4.43;2.00;;;17.30;99.90;;;;;;4996106;28;89561;-34
2023/07/04 08:16:28;;;;;;;3.83;2.35;;;17.30;99.90;;;;;;4995438;28;89252;-37
2023/07/04 08:18:55;;;;;;;3.67;2.45;;;17.60;99.90;;;;;;4995554;28;89093;-34
2023/07/04 08:21:23;;;;;;;5.43;2.40;;;17.60;99.90;;;;;;4996072;28;91492;-39
2023/07/04 08:23:49;;;;;;;6.38;2.60;;;17.40;99.90;;;;;;4996374;28;90784;-35
2023/07/04 08:26:25;;;;;;;6.20;2.47;;;17.60;99.90;;;;;;4995740;28;88549;-33
2023/07/04 08:28:56;;;;;;;5.38;2.30;;;17.50;99.90;;;;;;4995664;28;89474;-40
2023/07/04 08:31:23;;;;;;;4.38;2.10;;;17.40;99.90;;;;;;4995073;28;90128;-35
2023/07/04 08:33:49;;;;;;;4.55;2.50;;;17.40;99.90;;;;;;4996230;28;89257;-35
2023/07/04 08:36:16;;;;;;;5.18;2.63;;;17.50;99.90;;;;;;4996231;28;90482;-34
2023/07/04 08:38:45;;;;;;;3.83;1.97;;;17.60;99.90;;;;;;4995651;28;88457;-36
2023/07/04 08:41:31;;;;;;;9.15;2.85;;;17.40;99.90;;;;;;4995334;28;91237;-32
2023/07/04 08:44:12;;;;;;;8.65;2.03;;;17.40;99.90;;;;;;4995393;28;90250;-39
2023/07/04 08:46:53;;;;;;;7.78;2.42;;;17.30;99.90;;;;;;4994678;28;90497;-34
2023/07/04 08:49:34;;;;;;;4.60;2.13;;;17.10;99.90;;;;;;4996623;28;89707;-35
2023/07/04 08:52:06;;;;;;;7.70;2.75;;;17.10;99.90;;;;;;4995718;28;90801;-34
2023/07/04 08:54:34;;;;;;;6.75;3.10;;;17.10;99.90;;;;;;5009198;28;90703;-37
2023/07/04 08:57:20;;;;;;;6.07;2.35;;;17.20;99.90;;;;;;4983806;28;89936;-33
2023/07/04 08:59:48;;;;;;;7.75;2.53;;;17.50;99.90;;;;;;4999339;28;88539;-35
2023/07/04 09:02:23;;;;;;;11.75;3.78;;;17.50;99.90;;;;;;4999912;28;90086;-33
2023/07/04 09:04:50;;;;;;;4.97;3.30;;;17.50;99.90;;;;;;4999118;28;90377;-34
2023/07/04 09:07:35;;;;;;;6.00;3.13;;;17.40;99.90;;;;;;4999030;28;89588;-37
2023/07/04 09:10:15;;;;;;;7.82;2.78;;;17.40;99.90;;;;;;4986901;28;90470;-31
2023/07/04 09:12:42;;;;;;;7.70;2.95;;;17.40;99.90;;;;;;5012614;28;90653;-34
2023/07/04 09:15:19;;;;;;;10.77;3.28;;;17.50;99.90;;;;;;4999240;28;88786;-35
2023/07/04 09:17:57;;;;;;;9.30;2.83;;;17.50;99.90;;;;;;4998843;28;89889;-33
2023/07/04 09:20:23;;;;;;;6.00;3.00;;;17.40;99.90;;;;;;4998570;28;88627;-33
2023/07/04 09:22:49;;;;;;;4.63;2.90;;;17.30;99.90;;;;;;4985985;28;90421;-37
2023/07/04 09:25:15;;;;;;;8.45;3.95;;;17.20;99.90;;;;;;4998592;28;89351;-34
2023/07/04 09:27:41;;;;;;;6.53;3.17;;;17.40;99.90;;;;;;4998675;28;91347;-33
2023/07/04 09:30:08;;;;;;;9.88;4.10;;;17.30;99.90;;;;;;4998178;28;88775;-38
2023/07/04 09:32:34;;;;;;;6.70;3.42;;;17.30;99.90;;;;;;4998451;28;90724;-38
2023/07/04 09:35:03;;;;;;;16.40;3.75;;;17.30;99.90;;;;;;4997011;28;90483;-37
2023/07/04 09:37:29;;;;;;;18.95;4.85;;;17.20;99.90;;;;;;4998797;28;90858;-36
2023/07/04 09:39:57;;;;;;;4.70;3.00;;;17.20;99.90;;;;;;4996718;28;89646;-37
2023/07/04 09:42:31;;;;;;;12.73;4.20;;;17.20;99.90;;;;;;4998947;28;90720;-32
2023/07/04 09:45:04;;;;;;;7.80;3.25;;;17.10;99.90;;;;;;4997807;28;90085;-36
2023/07/04 09:47:30;;;;;;;8.88;3.95;;;17.20;99.90;;;;;;4998698;28;89731;-35
2023/07/04 09:50:13;;;;;;;8.50;3.03;;;17.30;99.90;;;;;;4998686;28;89010;-34
2023/07/04 09:52:40;;;;;;;6.35;2.95;;;17.20;99.90;;;;;;4999391;28;90300;-37
2023/07/04 09:55:16;;;;;;;4.65;3.20;;;17.10;99.90;;;;;;5011598;28;89126;-33
2023/07/04 09:57:46;;;;;;;6.80;3.05;;;17.10;99.90;;;;;;4997973;28;88933;-34
2023/07/04 10:00:24;;;;;;;5.90;2.95;;;17.40;99.90;;;;;;4992995;28;89015;-32
2023/07/04 10:02:54;;;;;;;6.55;2.67;;;17.80;99.90;;;;;;4997546;28;90300;-32
2023/07/04 10:05:33;;;;;;;12.45;3.33;;;17.90;99.90;;;;;;4997669;28;89334;-37
2023/07/04 10:08:19;;;;;;;12.10;3.33;;;18.20;99.90;;;;;;4997502;28;90541;-35
2023/07/04 10:10:53;;;;;;;5.35;2.85;;;18.20;99.90;;;;;;4996842;28;89913;-32
2023/07/04 10:13:22;;;;;;;12.00;3.92;;;18.10;99.90;;;;;;5003480;28;90955;-34
2023/07/04 10:15:49;;;;;;;7.40;2.47;;;18.40;99.90;;;;;;5002266;27;89616;-37
2023/07/04 10:18:32;;;;;;;7.13;2.42;;;18.60;99.90;;;;;;4997496;28;90605;-36
2023/07/04 10:21:00;;;;;;;11.27;3.63;;;18.80;99.90;;;;;;5005669;28;89241;-34
2023/07/04 10:23:28;;;;;;;5.53;2.88;;;18.90;99.90;;;;;;5004955;28;90001;-34
2023/07/04 10:26:00;;;;;;;8.27;3.80;;;18.90;99.90;;;;;;5002521;28;92309;-33
2023/07/04 10:28:27;;;;;;;6.93;2.53;;;19.10;99.90;;;;;;4998250;27;90577;-33
2023/07/04 10:31:06;;;;;;;8.13;2.97;;;19.00;99.90;;;;;;5005091;27;89131;-36
2023/07/04 10:33:43;;;;;;;7.35;3.10;;;19.20;99.90;;;;;;4997197;28;90411;-37
2023/07/04 10:36:13;;;;;;;5.50;3.00;;;19.10;99.90;;;;;;5007635;28;90620;-37
2023/07/04 10:38:47;;;;;;;9.80;3.40;;;18.70;99.90;;;;;;4998116;27;89956;-34
2023/07/04 10:41:23;;;;;;;11.55;4.22;;;18.50;99.90;;;;;;4998131;28;87962;-35
2023/07/04 10:43:56;;;;;;;9.50;3.17;;;18.30;99.90;;;;;;4986024;28;88338;-33
2023/07/04 10:46:25;;;;;;;6.57;2.47;;;18.30;99.90;;;;;;4997318;28;89619;-33
2023/07/04 10:49:00;;;;;;;6.97;2.60;;;18.30;99.90;;;;;;4997054;28;89296;-38
2023/07/04 10:51:36;;;;;;;3.55;2.45;;;18.10;99.90;;;;;;4997033;28;89698;-33
2023/07/04 10:54:03;;;;;;;6.15;3.50;;;17.90;99.90;;;;;;5007071;28;89161;-35
2023/07/04 10:56:33;;;;;;;6.90;2.75;;;17.80;99.90;;;;;;5000777;27;89998;-34
2023/07/04 10:59:15;;;;;;;6.60;3.03;;;17.90;99.90;;;;;;4997667;28;91521;-34
2023/07/04 11:01:52;;;;;;;6.30;3.67;;;17.80;99.90;;;;;;4997472;28;89992;-32
2023/07/04 11:04:23;;;;;;;6.83;3.13;;;18.00;99.90;;;;;;4997359;28;91125;-32
2023/07/04 11:06:59;;;;;;;9.38;3.78;;;17.70;99.90;;;;;;5008787;28;89918;-34
2023/07/04 11:09:26;;;;;;;9.80;3.25;;;17.80;99.90;;;;;;4996362;28;89423;-35
2023/07/04 11:11:53;;;;;;;10.98;4.03;;;18.10;99.90;;;;;;4997216;28;89760;-37
2023/07/04 11:14:25;;;;;;;5.90;3.50;;;18.30;99.90;;;;;;5010809;28;91390;-35
2023/07/04 11:16:55;;;;;;;9.85;3.67;;;18.40;99.90;;;;;;5004622;28;90441;-32
2023/07/04 11:19:26;;;;;;;11.13;3.03;;;18.50;99.90;;;;;;4996204;28;90824;-36
2023/07/04 11:22:02;;;;;;;7.13;3.58;;;18.40;99.90;;;;;;5007127;28;88396;-35
2023/07/04 11:24:44;;;;;;;12.73;4.05;;;18.40;99.90;;;;;;4988916;28;88787;-35
2023/07/04 11:27:17;;;;;;;7.93;3.63;;;18.50;99.90;;;;;;5000328;28;89836;-33
2023/07/04 11:29:52;;;;;;;5.72;4.05;;;18.60;99.90;;;;;;5015302;28;89391;-37
2023/07/04 11:32:32;;;;;;;8.52;3.55;;;18.70;99.90;;;;;;4997088;28;89459;-32
2023/07/04 11:35:23;;;;;;;8.40;3.47;;;18.80;99.90;;;;;;5005908;28;89780;-32
2023/07/04 11:37:53;;;;;;;7.85;2.90;;;19.20;99.90;;;;;;4997447;28;90106;-32
2023/07/04 11:40:26;;;;;;;6.53;3.75;;;19.30;99.90;;;;;;4997100;28;89319;-32
2023/07/04 11:42:55;;;;;;;9.73;3.47;;;19.50;99.90;;;;;;4997274;28;90474;-34
2023/07/04 11:45:25;;;;;;;7.90;3.28;;;19.70;99.90;;;;;;4997490;28;90319;-37
2023/07/04 11:48:08;;;;;;;8.48;3.33;;;19.60;99.90;;;;;;4993201;28;90222;-35
2023/07/04 11:50:37;;;;;;;9.77;3.53;;;19.70;99.90;;;;;;4998345;28;89316;-32
2023/07/04 11:53:11;;;;;;;6.03;3.50;;;19.70;99.90;;;;;;4999323;28;87791;-38
2023/07/04 11:55:37;;;;;;;9.00;3.88;;;19.70;99.90;;;;;;5010141;27;92487;-33
2023/07/04 11:58:08;;;;;;;8.07;3.58;;;19.70;99.90;;;;;;4998499;28;89606;-32
2023/07/04 12:00:38;;;;;;;6.80;3.28;;;19.70;99.90;;;;;;4994229;28;90006;-33
2023/07/04 12:03:21;;;;;;;5.70;2.95;;;19.70;99.90;;;;;;4994405;28;89170;-32
2023/07/04 12:05:55;;;;;;;5.47;3.40;;;19.90;99.90;;;;;;4998749;28;89330;-37
2023/07/04 12:08:29;;;;;;;6.72;3.88;;;19.80;99.90;;;;;;5001706;28;92197;-32
2023/07/04 12:11:00;;;;;;;10.15;3.25;;;19.50;99.90;;;;;;5005949;28;89779;-35
2023/07/04 12:13:28;;;;;;;10.23;4.15;;;19.50;99.90;;;;;;4997744;28;89641;-34
2023/07/04 12:15:55;;;;;;;;;;;19.80;99.90;;;;;;4999737;28;89915;-34
2023/07/04 12:18:31;;;;;;;6.63;3.03;;;19.80;99.90;;;;;;4986721;28;90441;-33
2023/07/04 12:20:57;;;;;;;5.30;2.53;;;19.80;99.90;;;;;;4997802;28;89892;-34
2023/07/04 12:23:24;;;;;;;5.43;3.05;;;19.90;99.90;;;;;;4998180;28;88966;-33
2023/07/04 12:25:52;;;;;;;5.18;3.03;;;19.90;99.90;;;;;;4998315;28;90762;-35
2023/07/04 12:28:23;;;;;;;3.80;3.25;;;19.80;99.90;;;;;;4998601;28;90137;-33
2023/07/04 12:31:00;;;;;;;7.80;3.22;;;19.90;99.90;;;;;;4998138;28;89241;-33
2023/07/04 12:33:35;;;;;;;8.45;3.47;;;19.80;99.90;;;;;;4998553;28;90160;-34
2023/07/04 12:36:06;;;;;;;15.50;4.03;;;19.60;99.90;;;;;;5013483;28;90217;-37
2023/07/04 12:38:38;;;;;;;5.45;2.97;;;19.40;99.90;;;;;;5001737;28;90419;-37
2023/07/04 12:41:06;;;;;;;5.25;2.90;;;19.20;99.90;;;;;;4988932;28;89504;-37
2023/07/04 12:43:32;;;;;;;10.80;3.63;;;19.20;99.90;;;;;;5001229;28;90152;-36
2023/07/04 12:46:07;;;;;;;6.55;2.92;;;19.40;99.90;;;;;;5001305;28;89614;-36
2023/07/04 12:48:35;;;;;;;8.02;2.08;;;19.60;99.90;;;;;;5001725;28;91154;-33
2023/07/04 12:51:01;;;;;;;6.57;2.60;;;19.60;99.90;;;;;;5012667;28;88769;-36
2023/07/04 12:53:28;;;;;;;4.40;2.10;;;19.70;99.90;;;;;;5013393;28;87979;-37
2023/07/04 12:55:56;;;;;;;6.97;2.33;;;19.90;99.90;;;;;;4993642;28;89969;-32